Time;durP1;ratioP1;P1;durP2;ratioP2;P2;SDS_P1;SDS_P2;PMS_P1;PMS_P2;Temp;Humidity;BMP_temperature;BMP_pressure;BME280_temperature;BME280_humidity;BME280_pressure;Samples;Min_cycle;Max_cycle;Signal;HPM_P1;HPM_P2
2022/03/02 00:00:17;;;;;;;16.58;9.13;;;;;;;;;;5034746;28;20456;-68
2022/03/02 00:02:43;;;;;;;20.42;10.95;;;;;;;;;;5037256;28;20047;-69
2022/03/02 00:05:09;;;;;;;20.98;10.98;;;;;;;;;;5039088;28;20082;-69
2022/03/02 00:07:35;;;;;;;19.35;10.18;;;;;;;;;;5041216;28;20114;-69
2022/03/02 00:10:01;;;;;;;22.17;11.15;;;;;;;;;;5033377;28;20483;-68
2022/03/02 00:12:30;;;;;;;16.88;10.07;;;;;;;;;;5034859;28;20501;-69
2022/03/02 00:14:56;;;;;;;26.70;12.52;;;;;;;;;;5043461;28;20043;-69
2022/03/02 00:17:22;;;;;;;19.48;11.18;;;;;;;;;;5040967;28;20029;-68
2022/03/02 00:19:48;;;;;;;20.10;10.93;;;;;;;;;;5041993;28;20045;-69
2022/03/02 00:22:14;;;;;;;22.85;11.35;;;;;;;;;;5036490;28;20466;-69
2022/03/02 00:24:40;;;;;;;20.23;10.38;;;;;;;;;;5043203;28;20056;-69
2022/03/02 00:27:05;;;;;;;19.67;9.90;;;;;;;;;;5043710;28;20034;-69
2022/03/02 00:29:31;;;;;;;17.80;10.63;;;;;;;;;;5035465;28;20040;-68
2022/03/02 00:31:57;;;;;;;24.45;11.07;;;;;;;;;;5033589;28;20115;-68
2022/03/02 00:34:23;;;;;;;18.15;10.50;;;;;;;;;;5038274;28;20032;-69
2022/03/02 00:36:48;;;;;;;15.68;10.05;;;;;;;;;;5033709;28;20049;-68
2022/03/02 00:39:14;;;;;;;22.63;11.85;;;;;;;;;;5041020;28;20150;-69
2022/03/02 00:41:40;;;;;;;17.45;10.07;;;;;;;;;;5037053;28;20475;-69
2022/03/02 00:44:06;;;;;;;18.27;10.43;;;;;;;;;;5037422;28;20120;-69
2022/03/02 00:46:32;;;;;;;18.95;11.15;;;;;;;;;;5034865;28;20183;-68
2022/03/02 00:48:59;;;;;;;20.63;10.38;;;;;;;;;;5036634;28;20037;-68
2022/03/02 00:51:27;;;;;;;24.17;9.82;;;;;;;;;;5039777;28;20029;-68
2022/03/02 00:53:53;;;;;;;19.55;9.85;;;;;;;;;;5034562;28;20070;-69
2022/03/02 00:56:20;;;;;;;21.27;10.75;;;;;;;;;;5039460;28;20052;-69
2022/03/02 00:58:47;;;;;;;18.73;10.00;;;;;;;;;;5033081;28;21962;-69
2022/03/02 01:01:12;;;;;;;19.20;10.60;;;;;;;;;;5034864;28;20032;-69
2022/03/02 01:03:38;;;;;;;21.33;10.43;;;;;;;;;;5040293;28;20044;-68
2022/03/02 01:06:05;;;;;;;14.38;9.52;;;;;;;;;;5032980;28;20036;-69
2022/03/02 01:08:32;;;;;;;19.25;10.02;;;;;;;;;;5035876;28;20041;-69
2022/03/02 01:10:58;;;;;;;18.80;10.23;;;;;;;;;;5037780;28;20036;-68
2022/03/02 01:13:24;;;;;;;18.48;9.98;;;;;;;;;;5037587;28;20160;-68
2022/03/02 01:15:50;;;;;;;24.85;10.10;;;;;;;;;;5038787;28;20036;-69
2022/03/02 01:18:16;;;;;;;19.65;10.18;;;;;;;;;;5041092;28;20108;-69
2022/03/02 01:20:42;;;;;;;16.30;9.75;;;;;;;;;;5034462;28;20037;-68
2022/03/02 01:23:08;;;;;;;21.25;10.73;;;;;;;;;;5033844;28;20033;-69
2022/03/02 01:25:33;;;;;;;22.08;10.40;;;;;;;;;;5032426;28;20045;-69
2022/03/02 01:28:00;;;;;;;19.38;10.52;;;;;;;;;;5033927;28;20437;-68
2022/03/02 01:30:26;;;;;;;23.27;11.73;;;;;;;;;;5038425;28;20401;-68
2022/03/02 01:32:52;;;;;;;16.75;10.38;;;;;;;;;;5034789;28;20037;-69
2022/03/02 01:35:17;;;;;;;18.02;10.48;;;;;;;;;;5036590;28;20037;-68
2022/03/02 01:37:43;;;;;;;19.30;10.60;;;;;;;;;;5040172;28;20120;-69
2022/03/02 01:40:10;;;;;;;17.85;10.10;;;;;;;;;;5037441;28;20112;-69
2022/03/02 01:42:37;;;;;;;18.27;10.90;;;;;;;;;;5031840;28;20034;-66
2022/03/02 01:45:05;;;;;;;23.08;10.15;;;;;;;;;;5035973;28;20033;-69
2022/03/02 01:47:30;;;;;;;19.40;10.55;;;;;;;;;;5034443;28;20504;-68
2022/03/02 01:49:56;;;;;;;18.90;9.43;;;;;;;;;;5036924;28;20068;-68
2022/03/02 01:52:22;;;;;;;15.60;9.82;;;;;;;;;;5041307;28;20029;-68
2022/03/02 01:54:48;;;;;;;17.05;9.63;;;;;;;;;;5040618;28;20028;-68
2022/03/02 01:57:14;;;;;;;13.77;9.25;;;;;;;;;;5033568;28;20107;-68
2022/03/02 01:59:40;;;;;;;22.25;9.68;;;;;;;;;;5041714;28;20029;-68
2022/03/02 02:02:07;;;;;;;12.75;9.02;;;;;;;;;;5036300;28;20032;-68
2022/03/02 02:04:33;;;;;;;14.68;8.45;;;;;;;;;;5032324;28;20040;-68
2022/03/02 02:06:58;;;;;;;17.85;9.68;;;;;;;;;;5031884;28;20041;-68
2022/03/02 02:09:24;;;;;;;18.05;8.52;;;;;;;;;;5039174;28;20043;-68
2022/03/02 02:11:50;;;;;;;18.92;9.30;;;;;;;;;;5032886;28;20445;-68
2022/03/02 02:14:16;;;;;;;17.27;9.43;;;;;;;;;;5035066;28;20076;-69
2022/03/02 02:16:42;;;;;;;18.23;9.23;;;;;;;;;;5037072;28;20076;-68
2022/03/02 02:19:07;;;;;;;17.88;8.75;;;;;;;;;;5036486;28;20593;-68
2022/03/02 02:21:33;;;;;;;15.70;9.02;;;;;;;;;;5040010;28;20079;-68
2022/03/02 02:23:59;;;;;;;16.30;9.68;;;;;;;;;;5033120;28;20037;-67
2022/03/02 02:26:25;;;;;;;18.95;8.77;;;;;;;;;;5036877;28;20116;-68
2022/03/02 02:28:52;;;;;;;13.02;8.40;;;;;;;;;;5036301;28;20460;-68
2022/03/02 02:31:18;;;;;;;18.52;8.93;;;;;;;;;;5034255;28;20033;-68
2022/03/02 02:33:44;;;;;;;16.70;8.45;;;;;;;;;;5032317;28;20094;-68
2022/03/02 02:36:11;;;;;;;14.57;7.88;;;;;;;;;;5034334;28;20036;-68
2022/03/02 02:38:37;;;;;;;16.85;8.07;;;;;;;;;;5033896;28;20037;-68
2022/03/02 02:41:03;;;;;;;17.77;9.18;;;;;;;;;;5034814;28;20025;-68
2022/03/02 02:43:28;;;;;;;14.45;8.70;;;;;;;;;;5033183;28;20038;-68
2022/03/02 02:45:55;;;;;;;11.20;8.20;;;;;;;;;;5031616;28;20033;-69
2022/03/02 02:48:21;;;;;;;15.52;8.23;;;;;;;;;;5034730;28;20108;-68
2022/03/02 02:50:47;;;;;;;13.35;7.78;;;;;;;;;;5033210;28;20112;-68
2022/03/02 02:53:13;;;;;;;11.88;7.32;;;;;;;;;;5038868;28;20040;-68
2022/03/02 02:55:41;;;;;;;15.68;8.07;;;;;;;;;;5032598;28;20025;-68
2022/03/02 02:58:08;;;;;;;14.07;8.30;;;;;;;;;;5042402;28;20043;-68
2022/03/02 03:00:36;;;;;;;13.88;8.52;;;;;;;;;;5031832;28;20040;-68
2022/03/02 03:03:03;;;;;;;12.60;7.80;;;;;;;;;;5036801;28;20036;-68
2022/03/02 03:05:31;;;;;;;15.43;7.97;;;;;;;;;;5031426;28;20171;-68
2022/03/02 03:08:00;;;;;;;14.85;7.72;;;;;;;;;;5032707;28;20037;-68
2022/03/02 03:10:26;;;;;;;17.42;7.55;;;;;;;;;;5037228;28;20045;-68
2022/03/02 03:12:52;;;;;;;19.65;8.68;;;;;;;;;;5031778;28;20046;-68
2022/03/02 03:15:19;;;;;;;10.45;7.47;;;;;;;;;;5033487;28;20033;-68
2022/03/02 03:17:45;;;;;;;13.13;8.10;;;;;;;;;;5033902;28;20033;-69
2022/03/02 03:20:14;;;;;;;14.90;8.10;;;;;;;;;;5040172;28;20115;-68
2022/03/02 03:22:39;;;;;;;19.83;7.65;;;;;;;;;;5035592;28;20549;-68
2022/03/02 03:25:07;;;;;;;15.20;7.57;;;;;;;;;;5038031;28;20131;-69
2022/03/02 03:27:34;;;;;;;13.20;7.68;;;;;;;;;;5032190;28;20112;-68
2022/03/02 03:30:00;;;;;;;16.77;7.82;;;;;;;;;;5031728;28;20497;-68
2022/03/02 03:32:26;;;;;;;15.30;8.27;;;;;;;;;;5037421;28;20029;-68
2022/03/02 03:34:53;;;;;;;13.98;8.35;;;;;;;;;;5040717;28;20033;-69
2022/03/02 03:37:19;;;;;;;12.25;7.18;;;;;;;;;;5042037;28;20022;-68
2022/03/02 03:39:45;;;;;;;10.98;7.43;;;;;;;;;;5042377;28;20474;-68
2022/03/02 03:42:11;;;;;;;19.00;8.05;;;;;;;;;;5040093;28;20036;-68
2022/03/02 03:44:37;;;;;;;16.00;7.72;;;;;;;;;;5036387;28;20033;-67
2022/03/02 03:47:04;;;;;;;11.55;7.03;;;;;;;;;;5035330;28;20170;-68
2022/03/02 03:49:30;;;;;;;18.50;7.88;;;;;;;;;;5036786;28;20053;-68
2022/03/02 03:51:56;;;;;;;9.98;6.60;;;;;;;;;;5041122;28;20032;-67
2022/03/02 03:54:21;;;;;;;17.88;7.10;;;;;;;;;;5037928;28;20065;-69
2022/03/02 03:56:47;;;;;;;14.30;7.35;;;;;;;;;;5044536;28;20128;-68
2022/03/02 03:59:13;;;;;;;11.15;7.10;;;;;;;;;;5041247;28;20128;-69
2022/03/02 04:01:39;;;;;;;14.18;7.15;;;;;;;;;;5038365;28;20450;-68
2022/03/02 04:04:04;;;;;;;14.85;7.00;;;;;;;;;;5048118;28;20033;-68
2022/03/02 04:06:31;;;;;;;11.00;7.38;;;;;;;;;;5035274;28;20111;-68
2022/03/02 04:08:57;;;;;;;10.45;6.97;;;;;;;;;;5038464;28;20124;-69
2022/03/02 04:11:23;;;;;;;15.65;7.40;;;;;;;;;;5037649;28;20156;-68
2022/03/02 04:13:49;;;;;;;13.00;7.32;;;;;;;;;;5036691;28;20124;-69
2022/03/02 04:16:35;;;;;;;13.40;6.85;;;;;;;;;;5037126;28;20482;-68
2022/03/02 04:19:20;;;;;;;13.02;6.97;;;;;;;;;;5036317;28;20028;-68
2022/03/02 04:22:06;;;;;;;12.00;6.90;;;;;;;;;;5044265;28;20037;-68
2022/03/02 04:24:52;;;;;;;12.80;7.28;;;;;;;;;;5035384;28;20045;-69
2022/03/02 04:27:37;;;;;;;10.75;6.80;;;;;;;;;;5044431;28;20569;-69
2022/03/02 04:30:23;;;;;;;12.80;6.90;;;;;;;;;;5035459;28;20046;-68
2022/03/02 04:33:08;;;;;;;9.38;6.47;;;;;;;;;;5037283;28;20045;-68
2022/03/02 04:35:53;;;;;;;17.42;6.75;;;;;;;;;;5037500;28;20036;-68
2022/03/02 04:38:19;;;;;;;12.15;6.53;;;;;;;;;;5033196;28;20498;-68
2022/03/02 04:40:45;;;;;;;12.63;6.45;;;;;;;;;;5035121;28;20033;-68
2022/03/02 04:43:11;;;;;;;17.13;6.75;;;;;;;;;;5035119;28;20036;-68
2022/03/02 04:45:37;;;;;;;14.75;6.70;;;;;;;;;;5036369;28;20037;-68
2022/03/02 04:48:03;;;;;;;8.55;7.10;;;;;;;;;;5038377;28;20029;-68
2022/03/02 04:50:29;;;;;;;20.48;7.10;;;;;;;;;;5039641;28;20383;-68
2022/03/02 04:52:56;;;;;;;11.10;6.30;;;;;;;;;;5033659;28;20025;-68
2022/03/02 04:55:22;;;;;;;9.07;5.97;;;;;;;;;;5039710;28;20037;-68
2022/03/02 04:57:51;;;;;;;10.65;6.57;;;;;;;;;;5042723;28;20044;-68
2022/03/02 05:00:22;;;;;;;9.35;6.88;;;;;;;;;;5041184;28;20075;-68
2022/03/02 05:02:48;;;;;;;11.43;6.82;;;;;;;;;;5036457;28;20077;-68
2022/03/02 05:05:16;;;;;;;14.38;6.72;;;;;;;;;;5041224;28;20075;-69
2022/03/02 05:07:42;;;;;;;12.52;7.25;;;;;;;;;;5034192;28;20485;-68
2022/03/02 05:10:09;;;;;;;11.25;6.50;;;;;;;;;;5039672;28;20099;-68
2022/03/02 05:12:35;;;;;;;11.55;7.07;;;;;;;;;;5034894;28;20072;-69
2022/03/02 05:15:03;;;;;;;13.52;7.22;;;;;;;;;;5038762;28;20455;-69
2022/03/02 05:17:29;;;;;;;11.55;6.30;;;;;;;;;;5036246;28;20040;-69
2022/03/02 05:19:54;;;;;;;9.55;6.72;;;;;;;;;;5036165;28;20026;-68
2022/03/02 05:22:20;;;;;;;17.08;7.32;;;;;;;;;;5043021;28;20029;-68
2022/03/02 05:24:46;;;;;;;11.00;6.95;;;;;;;;;;5034982;28;20049;-68
2022/03/02 05:27:12;;;;;;;13.13;7.47;;;;;;;;;;5034016;28;20041;-69
2022/03/02 05:29:37;;;;;;;10.57;7.00;;;;;;;;;;5033816;28;20437;-68
2022/03/02 05:32:05;;;;;;;13.68;7.30;;;;;;;;;;5036344;28;20088;-68
2022/03/02 05:34:30;;;;;;;12.90;7.38;;;;;;;;;;5034504;28;20677;-68
2022/03/02 05:36:56;;;;;;;13.05;7.32;;;;;;;;;;5039222;28;20064;-68
2022/03/02 05:39:25;;;;;;;14.05;7.57;;;;;;;;;;5036912;28;20041;-68
2022/03/02 05:41:51;;;;;;;11.70;6.93;;;;;;;;;;5037670;28;20026;-68
2022/03/02 05:44:17;;;;;;;13.70;7.32;;;;;;;;;;5037999;28;20065;-68
2022/03/02 05:46:43;;;;;;;12.18;7.53;;;;;;;;;;5043728;28;20028;-68
2022/03/02 05:49:09;;;;;;;13.38;7.00;;;;;;;;;;5038905;28;20033;-68
2022/03/02 05:51:35;;;;;;;9.95;7.15;;;;;;;;;;5039314;28;20027;-68
2022/03/02 05:54:03;;;;;;;12.15;6.65;;;;;;;;;;5042024;28;20478;-69
2022/03/02 05:56:32;;;;;;;16.30;6.57;;;;;;;;;;5034420;28;20367;-68
2022/03/02 05:58:58;;;;;;;11.80;7.05;;;;;;;;;;5035018;28;20029;-69
2022/03/02 06:01:25;;;;;;;11.85;6.82;;;;;;;;;;5042306;28;20493;-69
2022/03/02 06:03:52;;;;;;;10.35;6.55;;;;;;;;;;5033177;28;20025;-69
2022/03/02 06:06:17;;;;;;;12.93;6.38;;;;;;;;;;5035058;28;20090;-68
2022/03/02 06:08:44;;;;;;;15.15;7.38;;;;;;;;;;5039131;28;20029;-69
2022/03/02 06:11:10;;;;;;;12.18;6.60;;;;;;;;;;5036012;28;20036;-68
2022/03/02 06:13:35;;;;;;;16.05;7.85;;;;;;;;;;5032209;28;20033;-69
2022/03/02 06:16:02;;;;;;;13.27;6.97;;;;;;;;;;5037400;28;20407;-68
2022/03/02 06:18:29;;;;;;;17.75;7.13;;;;;;;;;;5036393;28;20029;-69
2022/03/02 06:21:00;;;;;;;9.80;6.90;;;;;;;;;;5035260;28;20037;-69
2022/03/02 06:23:30;;;;;;;12.75;7.40;;;;;;;;;;5035381;28;20167;-69
2022/03/02 06:25:56;;;;;;;15.75;7.78;;;;;;;;;;5037956;28;20090;-68
2022/03/02 06:28:26;;;;;;;15.60;6.75;;;;;;;;;;5036796;28;20024;-68
2022/03/02 06:30:52;;;;;;;11.05;6.68;;;;;;;;;;5031347;28;20075;-68
2022/03/02 06:33:19;;;;;;;12.68;7.35;;;;;;;;;;5034740;28;20125;-68
2022/03/02 06:35:46;;;;;;;11.73;6.93;;;;;;;;;;5039737;28;20037;-68
2022/03/02 06:38:12;;;;;;;11.68;7.10;;;;;;;;;;5038158;28;20040;-68
2022/03/02 06:40:40;;;;;;;15.88;7.15;;;;;;;;;;5033156;28;20123;-67
2022/03/02 06:43:11;;;;;;;12.52;7.15;;;;;;;;;;5031462;28;20558;-68
2022/03/02 06:45:57;;;;;;;12.57;7.10;;;;;;;;;;5030651;28;20041;-68
2022/03/02 06:48:37;;;;;;;17.50;7.85;;;;;;;;;;5038456;28;20061;-69
2022/03/02 06:51:05;;;;;;;12.48;7.05;;;;;;;;;;5032208;28;20560;-68
2022/03/02 06:53:33;;;;;;;14.13;7.85;;;;;;;;;;5035186;28;20036;-68
2022/03/02 06:56:08;;;;;;;22.90;7.45;;;;;;;;;;5034026;28;20036;-68
2022/03/02 06:58:40;;;;;;;14.55;7.88;;;;;;;;;;5034740;28;20612;-68
2022/03/02 07:01:11;;;;;;;18.65;7.47;;;;;;;;;;5034312;28;20037;-68
2022/03/02 07:03:45;;;;;;;14.75;7.55;;;;;;;;;;5029598;28;20502;-68
2022/03/02 07:06:13;;;;;;;12.50;7.25;;;;;;;;;;5030971;28;20422;-68
2022/03/02 07:08:42;;;;;;;14.68;7.63;;;;;;;;;;5035807;28;20781;-68
2022/03/02 07:11:08;;;;;;;18.25;6.70;;;;;;;;;;5040392;28;20644;-68
2022/03/02 07:13:34;;;;;;;9.73;6.68;;;;;;;;;;5033782;28;20063;-68
2022/03/02 07:16:00;;;;;;;14.23;7.30;;;;;;;;;;5033475;28;20037;-68
2022/03/02 07:18:27;;;;;;;11.77;7.20;;;;;;;;;;5039835;28;20074;-68
2022/03/02 07:20:57;;;;;;;13.07;6.75;;;;;;;;;;5033772;28;20033;-68
2022/03/02 07:23:28;;;;;;;11.57;6.55;;;;;;;;;;5034031;28;20072;-69
2022/03/02 07:25:58;;;;;;;12.65;6.65;;;;;;;;;;5036359;28;20530;-68
2022/03/02 07:28:26;;;;;;;59.45;20.42;;;;;;;;;;5030971;28;20029;-68
2022/03/02 07:30:54;;;;;;;22.92;13.10;;;;;;;;;;5037744;28;20029;-68
2022/03/02 07:33:21;;;;;;;32.03;17.33;;;;;;;;;;5032601;28;20053;-67
2022/03/02 07:35:53;;;;;;;9.80;7.05;;;;;;;;;;5032418;28;20025;-68
2022/03/02 07:38:21;;;;;;;13.60;6.95;;;;;;;;;;5032826;28;20030;-68
2022/03/02 07:40:48;;;;;;;11.40;6.70;;;;;;;;;;5035152;28;20096;-67
2022/03/02 07:43:15;;;;;;;17.13;9.10;;;;;;;;;;5031028;28;20090;-67
2022/03/02 07:45:41;;;;;;;10.90;8.10;;;;;;;;;;5038078;28;20044;-67
2022/03/02 07:48:06;;;;;;;20.70;8.27;;;;;;;;;;5036170;28;20116;-67
2022/03/02 07:50:33;;;;;;;14.90;7.57;;;;;;;;;;5031330;28;20047;-67
2022/03/02 07:53:01;;;;;;;15.43;9.55;;;;;;;;;;5034881;28;20041;-68
2022/03/02 07:55:28;;;;;;;18.08;8.25;;;;;;;;;;5026619;28;20478;-67
2022/03/02 07:57:57;;;;;;;12.38;6.57;;;;;;;;;;5035543;28;20029;-67
2022/03/02 08:00:28;;;;;;;14.90;7.07;;;;;;;;;;5033142;28;20091;-68
2022/03/02 08:02:57;;;;;;;16.33;10.15;;;;;;;;;;5032433;28;20018;-67
2022/03/02 08:05:24;;;;;;;19.98;12.35;;;;;;;;;;5037715;28;20080;-68
2022/03/02 08:07:50;;;;;;;19.02;11.38;;;;;;;;;;5031073;28;20901;-67
2022/03/02 08:10:16;;;;;;;19.90;7.18;;;;;;;;;;5032366;28;20044;-67
2022/03/02 08:12:42;;;;;;;11.70;6.90;;;;;;;;;;5036745;28;20033;-67
2022/03/02 08:15:09;;;;;;;15.40;6.78;;;;;;;;;;5034047;28;20041;-67
2022/03/02 08:17:35;;;;;;;14.80;7.63;;;;;;;;;;5030932;28;20029;-67
2022/03/02 08:20:01;;;;;;;14.20;6.63;;;;;;;;;;5033607;28;20043;-67
2022/03/02 08:22:30;;;;;;;11.93;5.82;;;;;;;;;;5038021;28;20476;-67
2022/03/02 08:25:10;;;;;;;10.93;6.40;;;;;;;;;;5038040;28;20136;-68
2022/03/02 08:27:41;;;;;;;13.15;7.22;;;;;;;;;;5044365;28;20032;-68
2022/03/02 08:30:09;;;;;;;14.38;7.85;;;;;;;;;;5038142;28;20086;-67
2022/03/02 08:32:40;;;;;;;14.68;7.50;;;;;;;;;;5034361;28;20029;-68
2022/03/02 08:35:07;;;;;;;13.80;7.45;;;;;;;;;;5035076;28;20368;-67
2022/03/02 08:37:34;;;;;;;16.55;6.72;;;;;;;;;;5034282;28;20504;-67
2022/03/02 08:40:00;;;;;;;13.57;6.47;;;;;;;;;;5031802;28;20278;-67
2022/03/02 08:42:27;;;;;;;17.30;9.30;;;;;;;;;;5035500;28;20040;-68
2022/03/02 08:44:54;;;;;;;9.18;6.20;;;;;;;;;;5037054;28;20033;-67
2022/03/02 08:47:24;;;;;;;16.38;9.45;;;;;;;;;;5036299;28;20040;-67
2022/03/02 08:49:51;;;;;;;10.68;5.30;;;;;;;;;;5034014;28;20029;-68
2022/03/02 08:52:20;;;;;;;10.40;5.55;;;;;;;;;;5040344;28;20033;-68
2022/03/02 08:54:48;;;;;;;9.15;5.70;;;;;;;;;;5039483;28;20112;-68
2022/03/02 08:57:18;;;;;;;9.13;5.43;;;;;;;;;;5040323;28;20032;-68
2022/03/02 08:59:45;;;;;;;10.10;5.93;;;;;;;;;;5040964;28;20021;-68
2022/03/02 09:02:16;;;;;;;12.43;5.75;;;;;;;;;;5033442;28;20064;-68
2022/03/02 09:04:43;;;;;;;13.52;5.70;;;;;;;;;;5037113;28;20136;-67
2022/03/02 09:07:09;;;;;;;15.68;6.88;;;;;;;;;;5031354;28;20116;-67
2022/03/02 09:09:34;;;;;;;13.23;5.50;;;;;;;;;;5043383;28;20120;-68
2022/03/02 09:12:00;;;;;;;12.73;5.80;;;;;;;;;;5037222;28;20454;-67
2022/03/02 09:14:26;;;;;;;17.25;6.45;;;;;;;;;;5039085;28;20087;-68
2022/03/02 09:16:51;;;;;;;9.73;5.72;;;;;;;;;;5033493;28;20056;-68
2022/03/02 09:19:17;;;;;;;19.23;6.68;;;;;;;;;;5036014;28;20113;-67
2022/03/02 09:21:45;;;;;;;11.07;5.28;;;;;;;;;;5033779;28;20524;-67
2022/03/02 09:24:11;;;;;;;19.10;7.43;;;;;;;;;;5036956;28;20398;-67
2022/03/02 09:26:39;;;;;;;15.48;7.38;;;;;;;;;;5037524;28;20488;-66
2022/03/02 09:29:06;;;;;;;10.98;5.93;;;;;;;;;;5035911;28;20079;-67
2022/03/02 09:31:34;;;;;;;15.73;5.63;;;;;;;;;;5031657;28;20067;-67
2022/03/02 09:34:03;;;;;;;7.68;4.82;;;;;;;;;;5031920;28;20124;-66
2022/03/02 09:36:35;;;;;;;11.10;4.03;;;;;;;;;;5044214;28;20028;-67
2022/03/02 09:39:01;;;;;;;8.93;4.13;;;;;;;;;;5035898;28;20029;-67
2022/03/02 09:41:48;;;;;;;9.43;4.07;;;;;;;;;;5032917;28;20025;-68
2022/03/02 09:44:17;;;;;;;6.05;3.75;;;;;;;;;;5032567;28;20029;-67
2022/03/02 09:46:49;;;;;;;10.07;3.97;;;;;;;;;;5037787;28;20465;-67
2022/03/02 09:49:20;;;;;;;10.10;4.15;;;;;;;;;;5034250;28;20064;-67
2022/03/02 09:51:52;;;;;;;12.38;4.35;;;;;;;;;;5037042;28;20024;-67
2022/03/02 09:54:22;;;;;;;10.57;4.85;;;;;;;;;;5033109;28;20052;-67
2022/03/02 09:56:52;;;;;;;10.25;4.05;;;;;;;;;;5038625;28;20484;-67
2022/03/02 09:59:18;;;;;;;10.10;3.88;;;;;;;;;;5033328;28;20041;-67
2022/03/02 10:01:45;;;;;;;10.98;4.47;;;;;;;;;;5038689;28;20029;-67
2022/03/02 10:04:18;;;;;;;15.10;5.88;;;;;;;;;;5039833;28;20120;-67
2022/03/02 10:06:44;;;;;;;11.98;5.28;;;;;;;;;;5029655;28;20021;-67
2022/03/02 10:09:12;;;;;;;8.60;4.55;;;;;;;;;;5037247;28;20025;-67
2022/03/02 10:11:41;;;;;;;10.48;4.72;;;;;;;;;;5035597;28;20069;-67
2022/03/02 10:14:08;;;;;;;16.17;5.22;;;;;;;;;;5037292;28;20076;-67
2022/03/02 10:16:42;;;;;;;13.65;5.18;;;;;;;;;;5030559;28;20030;-67
2022/03/02 10:19:15;;;;;;;11.00;4.90;;;;;;;;;;5035141;28;20104;-67
2022/03/02 10:21:48;;;;;;;13.90;4.90;;;;;;;;;;5033417;28;20021;-67
2022/03/02 10:24:19;;;;;;;9.35;5.20;;;;;;;;;;5035886;28;20122;-67
2022/03/02 10:26:55;;;;;;;16.88;5.05;;;;;;;;;;5036244;28;20542;-67
2022/03/02 10:29:35;;;;;;;9.93;4.93;;;;;;;;;;5043232;28;20087;-67
2022/03/02 10:32:06;;;;;;;11.65;4.70;;;;;;;;;;5031583;28;20127;-67
2022/03/02 10:34:37;;;;;;;14.80;5.43;;;;;;;;;;5033646;28;20565;-68
2022/03/02 10:37:19;;;;;;;17.00;5.10;;;;;;;;;;5037840;28;20441;-68
2022/03/02 10:39:50;;;;;;;10.40;4.78;;;;;;;;;;5032337;28;20057;-68
2022/03/02 10:42:20;;;;;;;16.65;5.10;;;;;;;;;;5034328;28;20041;-67
2022/03/02 10:44:50;;;;;;;8.73;5.10;;;;;;;;;;5033316;28;20028;-67
2022/03/02 10:47:20;;;;;;;14.35;5.30;;;;;;;;;;5035289;28;20474;-67
2022/03/02 10:49:46;;;;;;;14.52;5.55;;;;;;;;;;5032720;28;20398;-67
2022/03/02 10:52:20;;;;;;;8.73;4.57;;;;;;;;;;5036249;28;20029;-67
2022/03/02 10:54:49;;;;;;;16.15;5.07;;;;;;;;;;5030955;28;20026;-68
2022/03/02 10:57:18;;;;;;;11.65;5.00;;;;;;;;;;5034093;28;20501;-67
2022/03/02 10:59:45;;;;;;;13.00;5.55;;;;;;;;;;5038010;28;20069;-67
2022/03/02 11:02:11;;;;;;;8.05;4.93;;;;;;;;;;5035524;28;20027;-67
2022/03/02 11:04:44;;;;;;;9.98;4.68;;;;;;;;;;5041640;28;20025;-67
2022/03/02 11:07:15;;;;;;;9.30;5.45;;;;;;;;;;5040044;28;20067;-67
2022/03/02 11:09:47;;;;;;;12.13;5.30;;;;;;;;;;5029919;28;20118;-68
2022/03/02 11:12:13;;;;;;;12.85;6.07;;;;;;;;;;5036779;28;20068;-67
2022/03/02 11:14:56;;;;;;;10.48;4.90;;;;;;;;;;5033817;28;20021;-66
2022/03/02 11:17:23;;;;;;;11.25;4.78;;;;;;;;;;5030051;28;20036;-67
2022/03/02 11:19:49;;;;;;;7.55;5.53;;;;;;;;;;5032204;28;20033;-67
2022/03/02 11:22:18;;;;;;;13.00;5.40;;;;;;;;;;5036066;28;20030;-67
2022/03/02 11:24:45;;;;;;;9.68;5.45;;;;;;;;;;5028776;28;20041;-67
2022/03/02 11:27:38;;;;;;;16.42;6.40;;;;;;;;;;5035605;28;20128;-67
2022/03/02 11:30:12;;;;;;;14.50;6.53;;;;;;;;;;5042130;28;20033;-67
2022/03/02 11:32:40;;;;;;;11.73;6.05;;;;;;;;;;5033619;28;20140;-66
2022/03/02 11:35:09;;;;;;;10.70;5.18;;;;;;;;;;5034280;28;20033;-67
2022/03/02 11:37:36;;;;;;;13.98;5.72;;;;;;;;;;5034033;28;20087;-67
2022/03/02 11:40:07;;;;;;;15.95;7.07;;;;;;;;;;5031904;28;20102;-67
2022/03/02 11:42:37;;;;;;;13.68;6.60;;;;;;;;;;5036917;28;20048;-67
2022/03/02 11:45:05;;;;;;;11.32;5.65;;;;;;;;;;5029523;28;20394;-67
2022/03/02 11:47:34;;;;;;;10.23;5.00;;;;;;;;;;5033702;28;20034;-67
2022/03/02 11:50:00;;;;;;;11.20;5.50;;;;;;;;;;5038962;28;20033;-67
2022/03/02 11:52:33;;;;;;;9.98;4.97;;;;;;;;;;5030626;28;20025;-67
2022/03/02 11:54:59;;;;;;;5.88;5.20;;;;;;;;;;5034025;28;20048;-68
2022/03/02 11:57:27;;;;;;;18.33;6.53;;;;;;;;;;5043216;28;20048;-67
2022/03/02 12:00:24;;;;;;;7.13;4.82;;;;;;;;;;5038201;28;20068;-67
2022/03/02 12:03:02;;;;;;;12.05;5.60;;;;;;;;;;5039266;28;20041;-67
2022/03/02 12:05:31;;;;;;;8.75;4.78;;;;;;;;;;5033051;28;20500;-67
2022/03/02 12:08:01;;;;;;;9.38;4.95;;;;;;;;;;5036871;28;20033;-67
2022/03/02 12:10:30;;;;;;;9.50;5.80;;;;;;;;;;5034784;28;20091;-68
2022/03/02 12:12:56;;;;;;;14.18;5.85;;;;;;;;;;5036881;28;20033;-67
2022/03/02 12:15:25;;;;;;;6.20;5.03;;;;;;;;;;5039735;28;20033;-67
2022/03/02 12:17:53;;;;;;;9.70;5.20;;;;;;;;;;5040719;28;20992;-67
2022/03/02 12:20:22;;;;;;;6.80;4.40;;;;;;;;;;5035783;28;20029;-67
2022/03/02 12:22:51;;;;;;;7.30;5.47;;;;;;;;;;5037937;28;20029;-67
2022/03/02 12:25:21;;;;;;;9.18;4.63;;;;;;;;;;5041914;28;20057;-67
2022/03/02 12:27:56;;;;;;;7.65;5.13;;;;;;;;;;5034826;28;20039;-67
2022/03/02 12:30:22;;;;;;;13.40;4.80;;;;;;;;;;5036190;28;20065;-67
2022/03/02 12:32:52;;;;;;;8.70;4.95;;;;;;;;;;5037386;28;20060;-68
2022/03/02 12:35:22;;;;;;;11.95;4.70;;;;;;;;;;5039076;28;20496;-67
2022/03/02 12:37:48;;;;;;;10.45;5.18;;;;;;;;;;5034554;28;20056;-68
2022/03/02 12:40:14;;;;;;;15.32;5.10;;;;;;;;;;5036705;28;20031;-68
2022/03/02 12:42:41;;;;;;;13.23;4.15;;;;;;;;;;5037301;28;20111;-68
2022/03/02 12:45:08;;;;;;;10.68;5.53;;;;;;;;;;5037300;28;20498;-68
2022/03/02 12:47:35;;;;;;;8.52;4.80;;;;;;;;;;5035573;28;20024;-68
2022/03/02 12:50:04;;;;;;;6.97;4.82;;;;;;;;;;5034145;28;20040;-67
2022/03/02 12:52:30;;;;;;;12.68;5.45;;;;;;;;;;5037429;28;20061;-68
2022/03/02 12:54:58;;;;;;;8.80;4.50;;;;;;;;;;5035216;28;20025;-68
2022/03/02 12:57:27;;;;;;;9.50;5.00;;;;;;;;;;5041248;28;20452;-68
2022/03/02 12:59:54;;;;;;;11.95;4.40;;;;;;;;;;5038013;28;20033;-68
2022/03/02 13:02:22;;;;;;;9.25;4.45;;;;;;;;;;5038755;28;20112;-68
2022/03/02 13:04:59;;;;;;;7.75;4.38;;;;;;;;;;5040047;28;20031;-68
2022/03/02 13:07:36;;;;;;;13.18;4.70;;;;;;;;;;5036691;28;20555;-68
2022/03/02 13:10:10;;;;;;;12.70;4.45;;;;;;;;;;5037549;28;20042;-67
2022/03/02 13:12:38;;;;;;;12.77;4.05;;;;;;;;;;5034730;28;20033;-68
2022/03/02 13:15:30;;;;;;;14.75;4.88;;;;;;;;;;5036372;28;20130;-68
2022/03/02 13:18:08;;;;;;;13.00;5.22;;;;;;;;;;5037302;28;20037;-67
2022/03/02 13:20:44;;;;;;;16.13;5.00;;;;;;;;;;5036670;28;20097;-68
2022/03/02 13:23:18;;;;;;;10.75;4.97;;;;;;;;;;5035618;28;20041;-68
2022/03/02 13:25:59;;;;;;;5.93;4.55;;;;;;;;;;5034067;28;20140;-67
2022/03/02 13:28:33;;;;;;;12.00;4.80;;;;;;;;;;5032864;28;20083;-67
2022/03/02 13:31:04;;;;;;;9.50;4.38;;;;;;;;;;5034051;28;20064;-68
2022/03/02 13:33:31;;;;;;;9.93;4.57;;;;;;;;;;5034078;28;20044;-68
2022/03/02 13:36:00;;;;;;;13.52;4.47;;;;;;;;;;5034382;28;20492;-68
2022/03/02 13:39:04;;;;;;;6.60;4.85;;;;;;;;;;5035626;28;20029;-68
2022/03/02 13:41:54;;;;;;;7.53;3.90;;;;;;;;;;5036850;28;20517;-68
2022/03/02 13:44:39;;;;;;;6.90;4.65;;;;;;;;;;5037614;28;20040;-69
2022/03/02 13:47:08;;;;;;;8.10;4.35;;;;;;;;;;5033483;28;20040;-68
2022/03/02 13:49:57;;;;;;;8.43;4.40;;;;;;;;;;5035170;28;20044;-68
2022/03/02 13:52:28;;;;;;;10.45;5.10;;;;;;;;;;5031987;28;20494;-68
2022/03/02 13:55:19;;;;;;;13.23;4.75;;;;;;;;;;5033758;28;20119;-68
2022/03/02 13:57:45;;;;;;;18.52;5.15;;;;;;;;;;5025267;28;20072;-68
2022/03/02 14:00:20;;;;;;;9.50;4.72;;;;;;;;;;5038038;28;20037;-68
2022/03/02 14:02:51;;;;;;;7.43;4.60;;;;;;;;;;5033118;28;20041;-67
2022/03/02 14:05:19;;;;;;;10.13;4.47;;;;;;;;;;5035187;28;20471;-68
2022/03/02 14:07:45;;;;;;;10.85;4.00;;;;;;;;;;5033442;28;20047;-68
2022/03/02 14:10:13;;;;;;;8.70;4.45;;;;;;;;;;5033753;28;20068;-67
2022/03/02 14:12:56;;;;;;;7.90;4.20;;;;;;;;;;5034172;28;20033;-67
2022/03/02 14:15:26;;;;;;;11.65;4.70;;;;;;;;;;5033695;28;20047;-68
2022/03/02 14:17:51;;;;;;;9.18;4.30;;;;;;;;;;5035743;28;20029;-67
2022/03/02 14:20:33;;;;;;;6.28;4.15;;;;;;;;;;5033672;28;20094;-68
2022/03/02 14:22:59;;;;;;;8.17;4.70;;;;;;;;;;5039014;28;20052;-67
2022/03/02 14:25:25;;;;;;;10.80;4.38;;;;;;;;;;5034820;28;20059;-68
2022/03/02 14:28:00;;;;;;;13.88;4.05;;;;;;;;;;5042292;28;20029;-68
2022/03/02 14:30:31;;;;;;;9.23;4.88;;;;;;;;;;5034031;28;20036;-68
2022/03/02 14:32:58;;;;;;;13.13;5.00;;;;;;;;;;5038993;28;20025;-67
2022/03/02 14:35:28;;;;;;;12.40;5.00;;;;;;;;;;5033181;28;20040;-67
2022/03/02 14:37:57;;;;;;;12.23;4.50;;;;;;;;;;5034064;28;20393;-68
2022/03/02 14:40:25;;;;;;;8.80;4.40;;;;;;;;;;5035324;28;20033;-68